sensor_id;sensor_type;location;lat;lon;timestamp;temperature;humidity
27900;DHT22;15243;50.726;7.080;2023-07-20T00:00:43;17.90;99.90
27900;DHT22;15243;50.726;7.080;2023-07-20T00:03:27;17.80;99.90
27900;DHT22;15243;50.726;7.080;2023-07-20T00:05:54;17.80;99.90
27900;DHT22;15243;50.726;7.080;2023-07-20T00:08:21;17.60;99.90
27900;DHT22;15243;50.726;7.080;2023-07-20T00:10:48;17.70;99.90
27900;DHT22;15243;50.726;7.080;2023-07-20T00:13:15;17.60;99.90
27900;DHT22;15243;50.726;7.080;2023-07-20T00:15:43;17.60;99.90
27900;DHT22;15243;50.726;7.080;2023-07-20T00:18:10;17.50;99.90
27900;DHT22;15243;50.726;7.080;2023-07-20T00:20:37;17.50;99.90
27900;DHT22;15243;50.726;7.080;2023-07-20T00:23:04;17.40;99.90
27900;DHT22;15243;50.726;7.080;2023-07-20T00:25:31;17.20;99.90
27900;DHT22;15243;50.726;7.080;2023-07-20T00:27:58;17.00;99.90
27900;DHT22;15243;50.726;7.080;2023-07-20T00:30:25;17.00;99.90
27900;DHT22;15243;50.726;7.080;2023-07-20T00:32:52;16.80;99.90
27900;DHT22;15243;50.726;7.080;2023-07-20T00:35:19;16.80;99.90
27900;DHT22;15243;50.726;7.080;2023-07-20T00:37:47;16.70;99.90
27900;DHT22;15243;50.726;7.080;2023-07-20T00:40:14;16.60;99.90
27900;DHT22;15243;50.726;7.080;2023-07-20T00:42:41;16.60;99.90
27900;DHT22;15243;50.726;7.080;2023-07-20T00:45:08;16.60;99.90
27900;DHT22;15243;50.726;7.080;2023-07-20T00:47:36;16.80;99.90
27900;DHT22;15243;50.726;7.080;2023-07-20T00:50:04;16.60;99.90
27900;DHT22;15243;50.726;7.080;2023-07-20T00:52:31;16.60;99.90
27900;DHT22;15243;50.726;7.080;2023-07-20T00:54:59;16.70;99.90
27900;DHT22;15243;50.726;7.080;2023-07-20T00:57:27;16.70;99.90
27900;DHT22;15243;50.726;7.080;2023-07-20T00:59:55;16.60;99.90
27900;DHT22;15243;50.726;7.080;2023-07-20T01:02:22;16.60;99.90
27900;DHT22;15243;50.726;7.080;2023-07-20T01:04:49;16.60;99.90
27900;DHT22;15243;50.726;7.080;2023-07-20T01:07:23;16.50;99.90
27900;DHT22;15243;50.726;7.080;2023-07-20T01:10:06;16.50;99.90
27900;DHT22;15243;50.726;7.080;2023-07-20T01:12:47;16.50;99.90
27900;DHT22;15243;50.726;7.080;2023-07-20T01:15:15;16.50;99.90
27900;DHT22;15243;50.726;7.080;2023-07-20T01:17:42;16.50;99.90
27900;DHT22;15243;50.726;7.080;2023-07-20T01:20:10;16.50;99.90
27900;DHT22;15243;50.726;7.080;2023-07-20T01:28:44;16.50;99.90
27900;DHT22;15243;50.726;7.080;2023-07-20T01:31:25;16.40;99.90
27900;DHT22;15243;50.726;7.080;2023-07-20T01:33:55;16.40;99.90
27900;DHT22;15243;50.726;7.080;2023-07-20T01:36:24;16.50;99.90
27900;DHT22;15243;50.726;7.080;2023-07-20T01:38:53;16.40;99.90
27900;DHT22;15243;50.726;7.080;2023-07-20T01:41:21;16.50;99.90
27900;DHT22;15243;50.726;7.080;2023-07-20T01:43:48;16.60;99.90
27900;DHT22;15243;50.726;7.080;2023-07-20T01:46:15;16.60;99.90
27900;DHT22;15243;50.726;7.080;2023-07-20T01:48:42;16.60;99.90
27900;DHT22;15243;50.726;7.080;2023-07-20T01:51:10;16.60;99.90
27900;DHT22;15243;50.726;7.080;2023-07-20T01:53:39;16.50;99.90
27900;DHT22;15243;50.726;7.080;2023-07-20T01:56:06;16.60;99.90
27900;DHT22;15243;50.726;7.080;2023-07-20T01:58:32;16.60;99.90
27900;DHT22;15243;50.726;7.080;2023-07-20T02:01:00;16.50;99.90
27900;DHT22;15243;50.726;7.080;2023-07-20T02:03:28;16.40;99.90
27900;DHT22;15243;50.726;7.080;2023-07-20T02:05:57;16.40;99.90
27900;DHT22;15243;50.726;7.080;2023-07-20T02:08:24;16.40;99.90
27900;DHT22;15243;50.726;7.080;2023-07-20T02:10:52;16.40;99.90
27900;DHT22;15243;50.726;7.080;2023-07-20T02:13:19;16.40;99.90
27900;DHT22;15243;50.726;7.080;2023-07-20T02:15:46;16.50;99.90
27900;DHT22;15243;50.726;7.080;2023-07-20T02:18:16;16.40;99.90
27900;DHT22;15243;50.726;7.080;2023-07-20T02:20:43;16.40;99.90
27900;DHT22;15243;50.726;7.080;2023-07-20T02:23:10;16.40;99.90
27900;DHT22;15243;50.726;7.080;2023-07-20T02:25:38;16.40;99.90
27900;DHT22;15243;50.726;7.080;2023-07-20T02:28:07;16.40;99.90
27900;DHT22;15243;50.726;7.080;2023-07-20T02:30:38;16.40;99.90
27900;DHT22;15243;50.726;7.080;2023-07-20T02:33:06;16.30;99.90
27900;DHT22;15243;50.726;7.080;2023-07-20T02:35:33;16.30;99.90
27900;DHT22;15243;50.726;7.080;2023-07-20T02:38:01;16.20;99.90
27900;DHT22;15243;50.726;7.080;2023-07-20T02:40:28;16.20;99.90
27900;DHT22;15243;50.726;7.080;2023-07-20T02:42:55;16.20;99.90
27900;DHT22;15243;50.726;7.080;2023-07-20T02:45:22;16.20;99.90
27900;DHT22;15243;50.726;7.080;2023-07-20T02:47:49;16.10;99.90
27900;DHT22;15243;50.726;7.080;2023-07-20T02:50:16;16.20;99.90
27900;DHT22;15243;50.726;7.080;2023-07-20T02:52:43;16.10;99.90
27900;DHT22;15243;50.726;7.080;2023-07-20T02:55:10;16.10;99.90
27900;DHT22;15243;50.726;7.080;2023-07-20T02:57:37;16.20;99.90
27900;DHT22;15243;50.726;7.080;2023-07-20T03:00:05;16.00;99.90
27900;DHT22;15243;50.726;7.080;2023-07-20T03:02:33;16.00;99.90
27900;DHT22;15243;50.726;7.080;2023-07-20T03:05:00;16.00;99.90
27900;DHT22;15243;50.726;7.080;2023-07-20T03:07:29;16.00;99.90
27900;DHT22;15243;50.726;7.080;2023-07-20T03:09:56;15.90;99.90
27900;DHT22;15243;50.726;7.080;2023-07-20T03:12:23;15.90;99.90
27900;DHT22;15243;50.726;7.080;2023-07-20T03:14:51;16.00;99.90
27900;DHT22;15243;50.726;7.080;2023-07-20T03:17:18;16.00;99.90
27900;DHT22;15243;50.726;7.080;2023-07-20T03:19:47;16.00;99.90
27900;DHT22;15243;50.726;7.080;2023-07-20T03:22:15;16.00;99.90
27900;DHT22;15243;50.726;7.080;2023-07-20T03:24:42;16.00;99.90
27900;DHT22;15243;50.726;7.080;2023-07-20T03:27:08;16.00;99.90
27900;DHT22;15243;50.726;7.080;2023-07-20T03:29:36;16.00;99.90
27900;DHT22;15243;50.726;7.080;2023-07-20T03:32:03;16.00;99.90
27900;DHT22;15243;50.726;7.080;2023-07-20T03:34:30;16.00;99.90
27900;DHT22;15243;50.726;7.080;2023-07-20T03:36:58;15.90;99.90
27900;DHT22;15243;50.726;7.080;2023-07-20T03:39:26;15.80;99.90
27900;DHT22;15243;50.726;7.080;2023-07-20T03:41:53;15.80;99.90
27900;DHT22;15243;50.726;7.080;2023-07-20T03:44:20;15.80;99.90
27900;DHT22;15243;50.726;7.080;2023-07-20T03:46:47;15.90;99.90
27900;DHT22;15243;50.726;7.080;2023-07-20T03:49:14;15.90;99.90
27900;DHT22;15243;50.726;7.080;2023-07-20T03:51:41;15.80;99.90
27900;DHT22;15243;50.726;7.080;2023-07-20T03:54:09;15.90;99.90
27900;DHT22;15243;50.726;7.080;2023-07-20T03:56:36;15.90;99.90
27900;DHT22;15243;50.726;7.080;2023-07-20T03:59:04;15.80;99.90
27900;DHT22;15243;50.726;7.080;2023-07-20T04:01:32;15.70;99.90
27900;DHT22;15243;50.726;7.080;2023-07-20T04:04:07;15.70;99.90
27900;DHT22;15243;50.726;7.080;2023-07-20T04:06:35;15.60;99.90
27900;DHT22;15243;50.726;7.080;2023-07-20T04:09:03;15.70;99.90
27900;DHT22;15243;50.726;7.080;2023-07-20T04:11:30;15.70;99.90
27900;DHT22;15243;50.726;7.080;2023-07-20T04:13:57;15.70;99.90
27900;DHT22;15243;50.726;7.080;2023-07-20T04:16:24;15.80;99.90
27900;DHT22;15243;50.726;7.080;2023-07-20T04:18:51;15.90;99.90
27900;DHT22;15243;50.726;7.080;2023-07-20T04:21:18;16.00;99.90
27900;DHT22;15243;50.726;7.080;2023-07-20T04:23:45;16.10;99.90
27900;DHT22;15243;50.726;7.080;2023-07-20T04:26:12;16.10;99.90
27900;DHT22;15243;50.726;7.080;2023-07-20T04:28:41;16.10;99.90
27900;DHT22;15243;50.726;7.080;2023-07-20T04:31:15;16.20;99.90
27900;DHT22;15243;50.726;7.080;2023-07-20T04:33:42;16.10;99.90
27900;DHT22;15243;50.726;7.080;2023-07-20T04:36:09;16.10;99.90
27900;DHT22;15243;50.726;7.080;2023-07-20T04:38:36;16.10;99.90
27900;DHT22;15243;50.726;7.080;2023-07-20T04:41:03;16.30;99.90
27900;DHT22;15243;50.726;7.080;2023-07-20T04:43:31;16.40;99.90
27900;DHT22;15243;50.726;7.080;2023-07-20T04:45:57;16.40;99.90
27900;DHT22;15243;50.726;7.080;2023-07-20T04:48:25;16.40;99.90
27900;DHT22;15243;50.726;7.080;2023-07-20T04:50:52;16.30;99.90
27900;DHT22;15243;50.726;7.080;2023-07-20T04:53:19;16.30;99.90
27900;DHT22;15243;50.726;7.080;2023-07-20T04:55:50;16.30;99.90
27900;DHT22;15243;50.726;7.080;2023-07-20T04:58:21;16.40;99.90
27900;DHT22;15243;50.726;7.080;2023-07-20T05:00:49;16.40;99.90
27900;DHT22;15243;50.726;7.080;2023-07-20T05:03:16;16.20;99.90
27900;DHT22;15243;50.726;7.080;2023-07-20T05:05:44;16.30;99.90
27900;DHT22;15243;50.726;7.080;2023-07-20T05:08:14;16.30;99.90
27900;DHT22;15243;50.726;7.080;2023-07-20T05:10:41;16.40;99.90
27900;DHT22;15243;50.726;7.080;2023-07-20T05:13:09;16.20;99.90
27900;DHT22;15243;50.726;7.080;2023-07-20T05:15:36;16.30;99.90
27900;DHT22;15243;50.726;7.080;2023-07-20T05:18:03;16.30;99.90
27900;DHT22;15243;50.726;7.080;2023-07-20T05:20:30;16.50;99.90
27900;DHT22;15243;50.726;7.080;2023-07-20T05:22:59;16.60;99.90
27900;DHT22;15243;50.726;7.080;2023-07-20T05:25:27;16.70;99.90
27900;DHT22;15243;50.726;7.080;2023-07-20T05:27:57;16.70;99.90
27900;DHT22;15243;50.726;7.080;2023-07-20T05:30:24;16.70;99.90
27900;DHT22;15243;50.726;7.080;2023-07-20T05:32:52;16.50;99.90
27900;DHT22;15243;50.726;7.080;2023-07-20T05:35:21;16.50;99.90
27900;DHT22;15243;50.726;7.080;2023-07-20T05:37:49;16.60;99.90
27900;DHT22;15243;50.726;7.080;2023-07-20T05:40:16;16.80;99.90
27900;DHT22;15243;50.726;7.080;2023-07-20T05:42:46;16.90;99.90
27900;DHT22;15243;50.726;7.080;2023-07-20T05:45:15;17.00;99.90
27900;DHT22;15243;50.726;7.080;2023-07-20T05:47:42;16.80;99.90
27900;DHT22;15243;50.726;7.080;2023-07-20T05:50:10;16.80;99.90
27900;DHT22;15243;50.726;7.080;2023-07-20T05:52:37;16.80;99.90
27900;DHT22;15243;50.726;7.080;2023-07-20T05:55:06;16.90;99.90
27900;DHT22;15243;50.726;7.080;2023-07-20T05:57:33;17.10;99.90
27900;DHT22;15243;50.726;7.080;2023-07-20T06:00:02;17.10;99.90
27900;DHT22;15243;50.726;7.080;2023-07-20T06:02:30;17.20;99.90
27900;DHT22;15243;50.726;7.080;2023-07-20T06:04:59;17.10;99.90
27900;DHT22;15243;50.726;7.080;2023-07-20T06:07:27;17.10;99.90
27900;DHT22;15243;50.726;7.080;2023-07-20T06:09:53;17.10;99.90
27900;DHT22;15243;50.726;7.080;2023-07-20T06:12:21;17.20;99.90
27900;DHT22;15243;50.726;7.080;2023-07-20T06:14:47;17.20;99.90
27900;DHT22;15243;50.726;7.080;2023-07-20T06:17:15;17.20;99.90
27900;DHT22;15243;50.726;7.080;2023-07-20T06:19:42;17.10;99.90
27900;DHT22;15243;50.726;7.080;2023-07-20T06:22:09;17.20;99.90
27900;DHT22;15243;50.726;7.080;2023-07-20T06:24:36;17.20;99.90
27900;DHT22;15243;50.726;7.080;2023-07-20T06:27:03;17.30;99.90
27900;DHT22;15243;50.726;7.080;2023-07-20T06:29:32;17.30;99.90
27900;DHT22;15243;50.726;7.080;2023-07-20T06:31:59;17.40;99.90
27900;DHT22;15243;50.726;7.080;2023-07-20T06:34:26;17.40;99.90
27900;DHT22;15243;50.726;7.080;2023-07-20T06:36:53;17.40;99.90
27900;DHT22;15243;50.726;7.080;2023-07-20T06:39:20;17.40;99.90
27900;DHT22;15243;50.726;7.080;2023-07-20T06:41:51;17.40;99.90
27900;DHT22;15243;50.726;7.080;2023-07-20T06:44:21;17.30;99.90
27900;DHT22;15243;50.726;7.080;2023-07-20T06:46:48;17.40;99.90
27900;DHT22;15243;50.726;7.080;2023-07-20T06:49:25;17.50;99.90
27900;DHT22;15243;50.726;7.080;2023-07-20T06:51:53;17.50;99.90
27900;DHT22;15243;50.726;7.080;2023-07-20T06:54:20;17.40;99.90
27900;DHT22;15243;50.726;7.080;2023-07-20T06:56:49;17.50;99.90
27900;DHT22;15243;50.726;7.080;2023-07-20T06:59:36;17.60;99.90
27900;DHT22;15243;50.726;7.080;2023-07-20T07:02:08;17.70;99.90
27900;DHT22;15243;50.726;7.080;2023-07-20T07:04:41;17.90;99.90
27900;DHT22;15243;50.726;7.080;2023-07-20T07:07:09;17.80;99.90
27900;DHT22;15243;50.726;7.080;2023-07-20T07:09:36;17.90;99.90
27900;DHT22;15243;50.726;7.080;2023-07-20T07:12:04;17.90;99.90
27900;DHT22;15243;50.726;7.080;2023-07-20T07:14:31;18.00;99.90
27900;DHT22;15243;50.726;7.080;2023-07-20T07:16:59;18.00;99.90
27900;DHT22;15243;50.726;7.080;2023-07-20T07:19:31;17.80;99.90
27900;DHT22;15243;50.726;7.080;2023-07-20T07:21:58;17.80;99.90
27900;DHT22;15243;50.726;7.080;2023-07-20T07:24:26;17.80;99.90
27900;DHT22;15243;50.726;7.080;2023-07-20T07:26:55;18.00;99.90
27900;DHT22;15243;50.726;7.080;2023-07-20T07:29:23;18.10;99.90
27900;DHT22;15243;50.726;7.080;2023-07-20T07:31:50;18.10;99.90
27900;DHT22;15243;50.726;7.080;2023-07-20T07:34:17;18.10;99.90
27900;DHT22;15243;50.726;7.080;2023-07-20T07:36:44;18.10;99.90
27900;DHT22;15243;50.726;7.080;2023-07-20T07:39:11;18.40;99.90
27900;DHT22;15243;50.726;7.080;2023-07-20T07:41:41;18.50;99.90
27900;DHT22;15243;50.726;7.080;2023-07-20T07:44:08;18.80;99.90
27900;DHT22;15243;50.726;7.080;2023-07-20T07:46:35;18.80;99.90
27900;DHT22;15243;50.726;7.080;2023-07-20T07:49:02;18.80;99.90
27900;DHT22;15243;50.726;7.080;2023-07-20T07:51:29;19.10;99.90
27900;DHT22;15243;50.726;7.080;2023-07-20T07:53:56;18.90;97.00
27900;DHT22;15243;50.726;7.080;2023-07-20T07:56:23;18.80;99.90
27900;DHT22;15243;50.726;7.080;2023-07-20T07:58:51;18.50;99.90
27900;DHT22;15243;50.726;7.080;2023-07-20T08:01:18;18.90;99.90
27900;DHT22;15243;50.726;7.080;2023-07-20T08:03:45;19.00;98.40
27900;DHT22;15243;50.726;7.080;2023-07-20T08:06:14;19.10;97.90
27900;DHT22;15243;50.726;7.080;2023-07-20T08:08:41;19.40;95.10
27900;DHT22;15243;50.726;7.080;2023-07-20T08:11:09;19.20;89.00
27900;DHT22;15243;50.726;7.080;2023-07-20T08:13:37;19.40;79.60
27900;DHT22;15243;50.726;7.080;2023-07-20T08:16:04;19.40;89.10
27900;DHT22;15243;50.726;7.080;2023-07-20T08:18:31;19.00;95.10
27900;DHT22;15243;50.726;7.080;2023-07-20T08:20:59;18.90;96.10
27900;DHT22;15243;50.726;7.080;2023-07-20T08:23:26;19.30;90.10
27900;DHT22;15243;50.726;7.080;2023-07-20T08:25:54;19.70;52.50
27900;DHT22;15243;50.726;7.080;2023-07-20T08:28:21;19.80;25.80
27900;DHT22;15243;50.726;7.080;2023-07-20T08:30:49;19.70;32.00
27900;DHT22;15243;50.726;7.080;2023-07-20T08:33:17;20.20;19.50
27900;DHT22;15243;50.726;7.080;2023-07-20T08:35:47;20.40;1.00
27900;DHT22;15243;50.726;7.080;2023-07-20T08:38:14;20.30;1.00
27900;DHT22;15243;50.726;7.080;2023-07-20T08:40:43;20.10;1.00
27900;DHT22;15243;50.726;7.080;2023-07-20T08:43:11;19.90;1.00
27900;DHT22;15243;50.726;7.080;2023-07-20T08:45:40;20.20;1.00
27900;DHT22;15243;50.726;7.080;2023-07-20T08:48:08;20.50;1.00
27900;DHT22;15243;50.726;7.080;2023-07-20T08:50:37;20.30;1.00
27900;DHT22;15243;50.726;7.080;2023-07-20T08:53:05;20.70;1.00
27900;DHT22;15243;50.726;7.080;2023-07-20T08:55:33;20.20;1.00
27900;DHT22;15243;50.726;7.080;2023-07-20T08:58:03;20.30;1.00
27900;DHT22;15243;50.726;7.080;2023-07-20T09:00:31;20.30;1.10
27900;DHT22;15243;50.726;7.080;2023-07-20T09:03:00;20.30;1.00
27900;DHT22;15243;50.726;7.080;2023-07-20T09:05:29;20.10;1.00
27900;DHT22;15243;50.726;7.080;2023-07-20T09:07:59;20.00;1.00
27900;DHT22;15243;50.726;7.080;2023-07-20T09:10:26;20.30;1.00
27900;DHT22;15243;50.726;7.080;2023-07-20T09:12:54;20.50;1.00
27900;DHT22;15243;50.726;7.080;2023-07-20T09:15:22;21.00;1.00
27900;DHT22;15243;50.726;7.080;2023-07-20T09:17:50;21.50;1.00
27900;DHT22;15243;50.726;7.080;2023-07-20T09:20:18;21.60;1.00
27900;DHT22;15243;50.726;7.080;2023-07-20T09:22:51;21.10;1.00
27900;DHT22;15243;50.726;7.080;2023-07-20T09:25:20;21.40;1.00
27900;DHT22;15243;50.726;7.080;2023-07-20T09:27:49;21.30;1.00
27900;DHT22;15243;50.726;7.080;2023-07-20T09:30:18;21.50;1.00
27900;DHT22;15243;50.726;7.080;2023-07-20T09:32:49;21.50;1.00
27900;DHT22;15243;50.726;7.080;2023-07-20T09:35:22;21.70;1.00
27900;DHT22;15243;50.726;7.080;2023-07-20T09:37:59;21.60;1.00
27900;DHT22;15243;50.726;7.080;2023-07-20T09:40:29;21.20;1.00
27900;DHT22;15243;50.726;7.080;2023-07-20T09:42:59;20.70;1.00
27900;DHT22;15243;50.726;7.080;2023-07-20T09:45:33;20.80;1.00
27900;DHT22;15243;50.726;7.080;2023-07-20T09:48:04;21.20;1.00
27900;DHT22;15243;50.726;7.080;2023-07-20T09:50:42;21.70;1.00
27900;DHT22;15243;50.726;7.080;2023-07-20T09:53:12;21.90;1.00
27900;DHT22;15243;50.726;7.080;2023-07-20T09:55:43;21.50;1.00
27900;DHT22;15243;50.726;7.080;2023-07-20T09:58:10;21.60;1.00
27900;DHT22;15243;50.726;7.080;2023-07-20T10:00:39;21.90;1.00
27900;DHT22;15243;50.726;7.080;2023-07-20T10:03:11;22.50;1.00
27900;DHT22;15243;50.726;7.080;2023-07-20T10:05:54;22.00;1.00
27900;DHT22;15243;50.726;7.080;2023-07-20T10:08:24;22.00;1.00
27900;DHT22;15243;50.726;7.080;2023-07-20T10:10:55;21.90;1.00
27900;DHT22;15243;50.726;7.080;2023-07-20T10:13:29;22.30;1.00
27900;DHT22;15243;50.726;7.080;2023-07-20T10:16:03;22.40;1.00
27900;DHT22;15243;50.726;7.080;2023-07-20T10:18:35;22.60;1.00
27900;DHT22;15243;50.726;7.080;2023-07-20T10:21:06;23.00;1.00
27900;DHT22;15243;50.726;7.080;2023-07-20T10:23:38;23.10;1.00
27900;DHT22;15243;50.726;7.080;2023-07-20T10:26:05;23.10;1.00
27900;DHT22;15243;50.726;7.080;2023-07-20T10:28:33;22.90;1.00
27900;DHT22;15243;50.726;7.080;2023-07-20T10:31:02;23.30;1.00
27900;DHT22;15243;50.726;7.080;2023-07-20T10:33:29;23.30;1.00
27900;DHT22;15243;50.726;7.080;2023-07-20T10:36:01;22.50;1.00
27900;DHT22;15243;50.726;7.080;2023-07-20T10:38:52;22.50;1.00
27900;DHT22;15243;50.726;7.080;2023-07-20T10:41:28;22.50;1.00
27900;DHT22;15243;50.726;7.080;2023-07-20T10:44:02;22.20;1.00
27900;DHT22;15243;50.726;7.080;2023-07-20T10:46:34;22.20;1.00
27900;DHT22;15243;50.726;7.080;2023-07-20T10:49:03;21.90;1.00
27900;DHT22;15243;50.726;7.080;2023-07-20T10:51:46;21.90;1.00
27900;DHT22;15243;50.726;7.080;2023-07-20T10:56:47;22.40;1.00
27900;DHT22;15243;50.726;7.080;2023-07-20T11:01:48;22.10;1.00
27900;DHT22;15243;50.726;7.080;2023-07-20T11:04:17;22.50;1.00
27900;DHT22;15243;50.726;7.080;2023-07-20T11:06:55;22.00;1.00
27900;DHT22;15243;50.726;7.080;2023-07-20T11:09:22;22.90;1.00
27900;DHT22;15243;50.726;7.080;2023-07-20T11:12:18;23.10;1.00
27900;DHT22;15243;50.726;7.080;2023-07-20T11:14:57;23.20;1.00
27900;DHT22;15243;50.726;7.080;2023-07-20T11:17:32;23.50;1.00
27900;DHT22;15243;50.726;7.080;2023-07-20T11:20:00;23.30;1.00
27900;DHT22;15243;50.726;7.080;2023-07-20T11:22:33;23.10;1.00
27900;DHT22;15243;50.726;7.080;2023-07-20T11:25:01;23.10;1.00
27900;DHT22;15243;50.726;7.080;2023-07-20T11:27:28;23.10;1.00
27900;DHT22;15243;50.726;7.080;2023-07-20T11:29:56;22.70;1.00
27900;DHT22;15243;50.726;7.080;2023-07-20T11:32:23;22.70;1.00
27900;DHT22;15243;50.726;7.080;2023-07-20T11:34:51;22.80;1.00
27900;DHT22;15243;50.726;7.080;2023-07-20T11:37:18;22.20;1.00
27900;DHT22;15243;50.726;7.080;2023-07-20T11:39:46;22.20;1.00
27900;DHT22;15243;50.726;7.080;2023-07-20T11:42:13;22.60;1.00
27900;DHT22;15243;50.726;7.080;2023-07-20T11:45:03;22.90;1.00
27900;DHT22;15243;50.726;7.080;2023-07-20T11:47:32;23.00;1.00
27900;DHT22;15243;50.726;7.080;2023-07-20T11:50:03;23.10;1.00
27900;DHT22;15243;50.726;7.080;2023-07-20T11:52:31;23.40;1.00
27900;DHT22;15243;50.726;7.080;2023-07-20T11:54:58;23.70;1.00
27900;DHT22;15243;50.726;7.080;2023-07-20T11:57:26;24.50;1.00
27900;DHT22;15243;50.726;7.080;2023-07-20T11:59:57;24.50;1.00
27900;DHT22;15243;50.726;7.080;2023-07-20T12:02:29;24.30;1.00
27900;DHT22;15243;50.726;7.080;2023-07-20T12:04:57;24.30;1.00
27900;DHT22;15243;50.726;7.080;2023-07-20T12:07:26;24.50;99.90
27900;DHT22;15243;50.726;7.080;2023-07-20T12:10:07;24.10;99.90
27900;DHT22;15243;50.726;7.080;2023-07-20T12:12:37;24.80;99.90
27900;DHT22;15243;50.726;7.080;2023-07-20T12:17:45;23.90;99.90
27900;DHT22;15243;50.726;7.080;2023-07-20T12:20:13;24.00;99.90
27900;DHT22;15243;50.726;7.080;2023-07-20T12:22:41;23.60;99.90
27900;DHT22;15243;50.726;7.080;2023-07-20T12:25:10;23.30;99.90
27900;DHT22;15243;50.726;7.080;2023-07-20T12:27:37;23.50;99.90
27900;DHT22;15243;50.726;7.080;2023-07-20T12:30:07;23.50;99.90
27900;DHT22;15243;50.726;7.080;2023-07-20T12:32:34;23.80;99.90
27900;DHT22;15243;50.726;7.080;2023-07-20T12:35:02;23.90;99.90
27900;DHT22;15243;50.726;7.080;2023-07-20T12:37:29;24.70;99.90
27900;DHT22;15243;50.726;7.080;2023-07-20T12:39:56;25.30;99.90
27900;DHT22;15243;50.726;7.080;2023-07-20T12:42:23;25.30;99.90
27900;DHT22;15243;50.726;7.080;2023-07-20T12:44:51;25.40;99.90
27900;DHT22;15243;50.726;7.080;2023-07-20T12:47:18;25.40;99.90
27900;DHT22;15243;50.726;7.080;2023-07-20T12:49:45;25.30;99.90
27900;DHT22;15243;50.726;7.080;2023-07-20T12:52:13;25.10;99.90
27900;DHT22;15243;50.726;7.080;2023-07-20T12:54:40;25.10;99.90
27900;DHT22;15243;50.726;7.080;2023-07-20T12:57:07;25.70;99.90
27900;DHT22;15243;50.726;7.080;2023-07-20T12:59:37;25.90;99.90
27900;DHT22;15243;50.726;7.080;2023-07-20T13:02:04;25.40;99.90
27900;DHT22;15243;50.726;7.080;2023-07-20T13:04:32;24.20;99.90
27900;DHT22;15243;50.726;7.080;2023-07-20T13:06:59;24.00;99.90
27900;DHT22;15243;50.726;7.080;2023-07-20T13:09:26;24.20;99.90
27900;DHT22;15243;50.726;7.080;2023-07-20T13:11:53;24.40;99.90
27900;DHT22;15243;50.726;7.080;2023-07-20T13:14:20;24.70;99.90
27900;DHT22;15243;50.726;7.080;2023-07-20T13:16:47;26.00;99.90
27900;DHT22;15243;50.726;7.080;2023-07-20T13:19:14;27.00;99.90
27900;DHT22;15243;50.726;7.080;2023-07-20T13:21:41;27.40;99.90
27900;DHT22;15243;50.726;7.080;2023-07-20T13:24:08;27.20;99.90
27900;DHT22;15243;50.726;7.080;2023-07-20T13:26:36;26.40;99.90
27900;DHT22;15243;50.726;7.080;2023-07-20T13:29:03;26.50;99.90
27900;DHT22;15243;50.726;7.080;2023-07-20T13:31:30;26.90;99.90
27900;DHT22;15243;50.726;7.080;2023-07-20T13:34:00;26.60;99.90
27900;DHT22;15243;50.726;7.080;2023-07-20T13:36:29;26.20;99.90
27900;DHT22;15243;50.726;7.080;2023-07-20T13:38:56;25.40;99.90
27900;DHT22;15243;50.726;7.080;2023-07-20T13:41:25;24.90;99.90
27900;DHT22;15243;50.726;7.080;2023-07-20T13:43:53;25.00;99.90
27900;DHT22;15243;50.726;7.080;2023-07-20T13:46:24;25.80;99.90
27900;DHT22;15243;50.726;7.080;2023-07-20T13:48:53;26.20;99.90
27900;DHT22;15243;50.726;7.080;2023-07-20T13:51:23;26.50;99.90
27900;DHT22;15243;50.726;7.080;2023-07-20T13:53:54;27.10;99.90
27900;DHT22;15243;50.726;7.080;2023-07-20T13:56:21;26.40;99.90
27900;DHT22;15243;50.726;7.080;2023-07-20T13:58:48;25.20;99.90
27900;DHT22;15243;50.726;7.080;2023-07-20T14:01:16;24.60;99.90
27900;DHT22;15243;50.726;7.080;2023-07-20T14:03:47;24.40;99.90
27900;DHT22;15243;50.726;7.080;2023-07-20T14:06:14;24.10;99.90
27900;DHT22;15243;50.726;7.080;2023-07-20T14:08:44;24.00;99.90
27900;DHT22;15243;50.726;7.080;2023-07-20T14:11:16;23.90;99.90
27900;DHT22;15243;50.726;7.080;2023-07-20T14:13:46;23.70;99.90
27900;DHT22;15243;50.726;7.080;2023-07-20T14:16:14;23.80;99.90
27900;DHT22;15243;50.726;7.080;2023-07-20T14:18:41;24.00;99.90
27900;DHT22;15243;50.726;7.080;2023-07-20T14:21:08;24.20;99.90
27900;DHT22;15243;50.726;7.080;2023-07-20T14:23:35;25.40;99.90
27900;DHT22;15243;50.726;7.080;2023-07-20T14:26:03;27.00;99.90
27900;DHT22;15243;50.726;7.080;2023-07-20T14:28:48;27.40;99.90
27900;DHT22;15243;50.726;7.080;2023-07-20T14:31:15;27.10;99.90
27900;DHT22;15243;50.726;7.080;2023-07-20T14:33:42;26.40;99.90
27900;DHT22;15243;50.726;7.080;2023-07-20T14:36:09;26.30;99.90
27900;DHT22;15243;50.726;7.080;2023-07-20T14:38:37;25.80;99.90
27900;DHT22;15243;50.726;7.080;2023-07-20T14:41:04;25.20;99.90
27900;DHT22;15243;50.726;7.080;2023-07-20T14:43:33;24.60;99.90
27900;DHT22;15243;50.726;7.080;2023-07-20T14:46:00;24.30;99.90
27900;DHT22;15243;50.726;7.080;2023-07-20T14:48:27;24.40;99.90
27900;DHT22;15243;50.726;7.080;2023-07-20T14:50:55;24.60;99.90
27900;DHT22;15243;50.726;7.080;2023-07-20T14:53:30;24.60;99.90
27900;DHT22;15243;50.726;7.080;2023-07-20T14:56:01;24.70;99.90
27900;DHT22;15243;50.726;7.080;2023-07-20T14:58:29;25.10;99.90
27900;DHT22;15243;50.726;7.080;2023-07-20T15:01:00;25.00;99.90
27900;DHT22;15243;50.726;7.080;2023-07-20T15:03:27;26.70;99.90
27900;DHT22;15243;50.726;7.080;2023-07-20T15:05:54;28.40;99.90
27900;DHT22;15243;50.726;7.080;2023-07-20T15:08:22;29.60;99.90
27900;DHT22;15243;50.726;7.080;2023-07-20T15:10:50;30.50;99.90
27900;DHT22;15243;50.726;7.080;2023-07-20T15:13:17;30.80;99.90
27900;DHT22;15243;50.726;7.080;2023-07-20T15:15:44;30.70;99.90
27900;DHT22;15243;50.726;7.080;2023-07-20T15:18:11;30.70;99.90
27900;DHT22;15243;50.726;7.080;2023-07-20T15:20:38;30.10;59.20
27900;DHT22;15243;50.726;7.080;2023-07-20T15:23:06;30.10;61.30
27900;DHT22;15243;50.726;7.080;2023-07-20T15:25:33;28.70;24.90
27900;DHT22;15243;50.726;7.080;2023-07-20T15:28:00;27.80;13.00
27900;DHT22;15243;50.726;7.080;2023-07-20T15:30:28;27.60;20.80
27900;DHT22;15243;50.726;7.080;2023-07-20T15:32:58;27.20;14.70
27900;DHT22;15243;50.726;7.080;2023-07-20T15:35:28;29.30;54.90
27900;DHT22;15243;50.726;7.080;2023-07-20T15:37:55;29.30;18.60
27900;DHT22;15243;50.726;7.080;2023-07-20T15:40:22;27.80;1.00
27900;DHT22;15243;50.726;7.080;2023-07-20T15:42:50;29.60;46.80
27900;DHT22;15243;50.726;7.080;2023-07-20T15:45:21;29.90;59.60
27900;DHT22;15243;50.726;7.080;2023-07-20T15:47:48;28.80;1.00
27900;DHT22;15243;50.726;7.080;2023-07-20T15:50:15;28.20;1.00
27900;DHT22;15243;50.726;7.080;2023-07-20T15:52:43;28.50;1.00
27900;DHT22;15243;50.726;7.080;2023-07-20T15:55:10;27.20;1.00
27900;DHT22;15243;50.726;7.080;2023-07-20T15:57:37;27.30;1.00